Time;durP1;ratioP1;P1;durP2;ratioP2;P2;SDS_P1;SDS_P2;PMS_P1;PMS_P2;Temp;Humidity;BMP_temperature;BMP_pressure;BME280_temperature;BME280_humidity;BME280_pressure;Samples;Min_cycle;Max_cycle;Signal;HPM_P1;HPM_P2
2022/07/07 00:02:21;;;;;;;3.85;2.17;;;24.00;52.60;;;;;;5044754;28;20040;-48
2022/07/07 00:04:47;;;;;;;3.15;1.80;;;24.00;52.60;;;;;;5044766;28;20433;-48
2022/07/07 00:07:13;;;;;;;2.97;1.83;;;24.00;52.50;;;;;;5043703;28;20681;-47
2022/07/07 00:09:38;;;;;;;3.67;2.00;;;24.00;52.70;;;;;;5044373;28;20374;-48
2022/07/07 00:12:05;;;;;;;2.88;1.70;;;24.00;52.60;;;;;;5043865;28;20029;-49
2022/07/07 00:14:31;;;;;;;2.83;1.77;;;24.00;52.60;;;;;;5038722;28;20024;-49
2022/07/07 00:16:57;;;;;;;2.90;1.70;;;24.00;52.60;;;;;;5040609;28;20496;-46
2022/07/07 00:19:23;;;;;;;2.63;1.50;;;24.00;52.60;;;;;;5043816;28;20036;-49
2022/07/07 00:21:49;;;;;;;2.40;1.50;;;24.00;52.50;;;;;;5043529;28;20039;-49
2022/07/07 00:24:14;;;;;;;2.80;1.48;;;24.00;52.50;;;;;;5044260;28;20032;-49
2022/07/07 00:26:40;;;;;;;2.45;1.55;;;24.00;52.50;;;;;;5043264;28;20102;-48
2022/07/07 00:29:06;;;;;;;2.72;1.55;;;24.00;52.50;;;;;;5043939;28;20570;-47
2022/07/07 00:31:33;;;;;;;3.42;1.70;;;24.00;52.50;;;;;;5044069;28;20377;-49
2022/07/07 00:33:59;;;;;;;2.85;1.80;;;24.00;52.50;;;;;;5044076;28;20033;-48
2022/07/07 00:36:24;;;;;;;2.58;1.48;;;24.00;52.40;;;;;;5043576;28;20130;-48
2022/07/07 00:38:50;;;;;;;2.13;1.23;;;24.00;52.40;;;;;;5044141;28;20118;-48
2022/07/07 00:41:16;;;;;;;3.60;1.60;;;24.00;52.40;;;;;;5044023;28;20024;-48
2022/07/07 00:43:43;;;;;;;2.95;1.60;;;24.00;52.40;;;;;;5043482;28;20029;-48
2022/07/07 00:46:09;;;;;;;2.88;1.60;;;24.00;52.30;;;;;;5043154;28;20090;-48
2022/07/07 00:48:37;;;;;;;3.35;1.75;;;24.00;52.40;;;;;;5043421;28;20101;-47
2022/07/07 00:51:08;;;;;;;2.63;1.60;;;24.00;52.40;;;;;;5043470;28;20037;-47
2022/07/07 00:53:34;;;;;;;2.70;1.40;;;24.00;52.30;;;;;;5043416;28;20036;-48
2022/07/07 00:56:00;;;;;;;3.40;1.42;;;24.00;52.30;;;;;;5043299;28;20027;-48
2022/07/07 00:58:26;;;;;;;2.60;1.50;;;24.00;52.30;;;;;;5043155;28;20024;-48
2022/07/07 01:00:52;;;;;;;2.78;1.38;;;24.00;52.30;;;;;;5043356;28;20510;-48
2022/07/07 01:03:17;;;;;;;3.35;1.40;;;24.00;52.30;;;;;;5042829;28;20036;-50
2022/07/07 01:05:47;;;;;;;2.53;1.38;;;24.00;52.30;;;;;;5042630;28;20027;-48
2022/07/07 01:08:17;;;;;;;5.15;1.75;;;24.00;52.20;;;;;;5042948;28;20033;-49
2022/07/07 01:10:45;;;;;;;3.08;1.67;;;24.00;52.20;;;;;;5043233;28;20047;-48
2022/07/07 01:13:11;;;;;;;2.53;1.40;;;24.00;52.30;;;;;;5042588;28;20082;-52
2022/07/07 01:15:37;;;;;;;2.30;1.30;;;24.00;52.30;;;;;;5042963;28;20116;-47
2022/07/07 01:18:04;;;;;;;2.13;1.20;;;24.00;52.20;;;;;;5042481;28;20555;-48
2022/07/07 01:20:29;;;;;;;2.78;1.30;;;24.00;52.30;;;;;;5042909;28;20029;-48
2022/07/07 01:22:55;;;;;;;2.25;1.30;;;24.00;52.20;;;;;;5043617;28;20021;-48
2022/07/07 01:25:22;;;;;;;2.25;1.25;;;24.00;52.20;;;;;;5042518;28;20029;-52
2022/07/07 01:27:49;;;;;;;2.47;1.27;;;24.00;52.10;;;;;;5042774;28;20021;-49
2022/07/07 01:30:16;;;;;;;1.88;1.13;;;24.00;52.20;;;;;;5042777;28;20037;-51
2022/07/07 01:32:42;;;;;;;2.15;1.30;;;24.00;52.10;;;;;;5042732;28;20033;-48
2022/07/07 01:35:08;;;;;;;2.85;1.48;;;24.00;52.00;;;;;;5042717;28;20025;-48
2022/07/07 01:37:34;;;;;;;2.25;1.40;;;24.00;52.00;;;;;;5042756;28;20378;-49
2022/07/07 01:40:00;;;;;;;2.55;1.38;;;24.00;52.00;;;;;;5042598;28;20033;-47
2022/07/07 01:42:26;;;;;;;2.60;1.27;;;24.00;52.00;;;;;;5042686;28;20032;-48
2022/07/07 01:44:52;;;;;;;2.75;1.13;;;24.00;51.90;;;;;;5042477;28;20029;-48
2022/07/07 01:47:21;;;;;;;2.25;1.30;;;24.00;51.90;;;;;;5043176;28;20104;-47
2022/07/07 01:49:47;;;;;;;2.25;1.30;;;24.00;51.90;;;;;;5043246;28;20121;-49
2022/07/07 01:52:13;;;;;;;2.75;1.20;;;24.00;51.90;;;;;;5042761;28;20497;-47
2022/07/07 01:54:39;;;;;;;2.10;1.20;;;24.00;51.90;;;;;;5043137;28;20443;-47
2022/07/07 01:57:06;;;;;;;2.30;1.27;;;24.00;51.80;;;;;;5041879;28;20029;-48
2022/07/07 01:59:33;;;;;;;3.08;1.27;;;24.00;51.80;;;;;;5042655;28;20596;-49
2022/07/07 02:01:58;;;;;;;2.05;1.20;;;24.00;51.80;;;;;;5042236;28;20028;-49
2022/07/07 02:04:24;;;;;;;2.75;1.30;;;24.00;51.80;;;;;;5043080;28;20388;-48
2022/07/07 02:06:50;;;;;;;2.13;1.27;;;24.00;51.80;;;;;;5042461;28;20083;-48
2022/07/07 02:09:16;;;;;;;2.00;1.20;;;24.00;51.80;;;;;;5042574;28;20048;-49
2022/07/07 02:11:41;;;;;;;2.30;1.27;;;24.00;51.70;;;;;;5042986;28;20029;-49
2022/07/07 02:14:07;;;;;;;2.58;1.23;;;23.90;51.80;;;;;;5040839;28;20025;-47
2022/07/07 02:16:33;;;;;;;1.58;0.98;;;24.00;51.80;;;;;;5042343;28;20558;-47
2022/07/07 02:19:02;;;;;;;2.08;1.30;;;23.90;51.80;;;;;;5075384;28;20449;-49
2022/07/07 02:21:28;;;;;;;2.10;1.15;;;24.00;51.80;;;;;;5042532;28;20065;-49
2022/07/07 02:23:55;;;;;;;1.83;1.13;;;24.00;51.80;;;;;;5042364;28;20021;-48
2022/07/07 02:26:21;;;;;;;2.53;1.20;;;24.00;52.50;;;;;;5042181;28;20032;-48
2022/07/07 02:28:47;;;;;;;2.22;1.27;;;23.90;51.80;;;;;;5042209;28;20750;-49
2022/07/07 02:31:13;;;;;;;2.03;1.30;;;24.00;51.80;;;;;;5046185;28;20029;-49
2022/07/07 02:33:39;;;;;;;1.90;1.20;;;24.00;51.80;;;;;;5046145;28;20031;-48
2022/07/07 02:36:06;;;;;;;2.58;1.50;;;24.00;51.80;;;;;;5045164;28;20036;-49
2022/07/07 02:38:33;;;;;;;1.80;0.88;;;24.00;51.80;;;;;;5046093;28;20115;-48
2022/07/07 02:40:59;;;;;;;2.20;1.20;;;24.00;51.70;;;;;;5046622;28;20393;-48
2022/07/07 02:43:25;;;;;;;1.75;1.25;;;23.90;51.70;;;;;;5041624;28;20442;-49
2022/07/07 02:45:52;;;;;;;2.00;1.20;;;24.00;51.70;;;;;;5045870;28;20078;-48
2022/07/07 02:48:23;;;;;;;2.10;1.17;;;23.90;51.70;;;;;;5045897;28;20056;-48
2022/07/07 02:50:50;;;;;;;1.92;1.23;;;23.90;51.70;;;;;;5045749;28;20060;-49
2022/07/07 02:53:17;;;;;;;2.03;1.30;;;23.90;51.70;;;;;;5045451;28;20033;-49
2022/07/07 02:55:44;;;;;;;2.00;1.10;;;23.90;51.70;;;;;;5045400;28;20025;-48
2022/07/07 02:58:11;;;;;;;2.25;1.30;;;23.90;51.70;;;;;;5044925;28;20086;-49
2022/07/07 03:00:38;;;;;;;1.58;1.08;;;24.00;51.70;;;;;;5045796;28;20114;-47
2022/07/07 03:03:07;;;;;;;1.88;1.20;;;24.00;51.60;;;;;;5045021;28;20025;-48
2022/07/07 03:05:34;;;;;;;2.35;1.33;;;23.90;51.50;;;;;;5045034;28;20025;-48
2022/07/07 03:08:00;;;;;;;2.28;1.30;;;23.90;51.60;;;;;;5045509;28;20489;-48
2022/07/07 03:10:25;;;;;;;1.90;1.10;;;23.90;51.60;;;;;;5045496;28;20036;-49
2022/07/07 03:12:52;;;;;;;1.50;1.02;;;24.00;51.60;;;;;;5045481;28;20021;-49
2022/07/07 03:15:17;;;;;;;1.88;1.23;;;24.00;51.50;;;;;;5044820;28;20056;-49
2022/07/07 03:17:44;;;;;;;2.13;1.33;;;23.90;51.60;;;;;;5045256;28;20545;-49
2022/07/07 03:20:11;;;;;;;2.08;1.17;;;23.90;51.60;;;;;;5045492;28;20024;-49
2022/07/07 03:22:38;;;;;;;1.63;0.82;;;24.00;51.60;;;;;;5045095;28;20033;-47
2022/07/07 03:25:05;;;;;;;2.10;1.20;;;23.90;51.60;;;;;;5045029;28;20021;-49
2022/07/07 03:27:31;;;;;;;1.38;0.88;;;23.90;51.60;;;;;;5044818;28;20108;-48
2022/07/07 03:29:57;;;;;;;1.63;1.10;;;24.00;51.60;;;;;;5044878;28;20183;-48
2022/07/07 03:32:22;;;;;;;1.98;1.02;;;24.00;51.60;;;;;;5045154;28;20048;-49
2022/07/07 03:34:48;;;;;;;1.95;1.23;;;23.90;51.60;;;;;;5044956;28;20036;-48
2022/07/07 03:37:14;;;;;;;1.77;1.20;;;23.90;51.70;;;;;;5043981;28;20025;-48
2022/07/07 03:39:39;;;;;;;1.88;1.15;;;24.00;51.70;;;;;;5044612;28;20024;-48
2022/07/07 03:42:05;;;;;;;2.42;1.20;;;24.00;51.70;;;;;;5043339;28;20049;-49
2022/07/07 03:44:31;;;;;;;2.17;1.10;;;24.00;51.70;;;;;;5044521;28;20516;-50
2022/07/07 03:46:56;;;;;;;1.83;1.15;;;24.00;51.70;;;;;;5044283;28;20029;-49
2022/07/07 03:49:22;;;;;;;2.70;1.10;;;24.00;51.70;;;;;;5044574;28;20025;-47
2022/07/07 03:51:48;;;;;;;2.17;1.20;;;24.00;51.80;;;;;;5044216;28;20032;-48
2022/07/07 03:54:14;;;;;;;2.10;1.17;;;24.00;51.80;;;;;;5043754;28;20021;-49
2022/07/07 03:56:40;;;;;;;2.08;1.10;;;24.00;51.80;;;;;;5042515;28;20295;-49
2022/07/07 03:59:05;;;;;;;2.13;1.20;;;24.00;51.80;;;;;;5043578;28;20114;-49
2022/07/07 04:01:31;;;;;;;2.88;1.27;;;24.00;51.80;;;;;;5043478;28;20406;-48
2022/07/07 04:03:57;;;;;;;2.67;1.30;;;24.00;51.90;;;;;;5043454;28;20021;-48
2022/07/07 04:06:23;;;;;;;2.05;1.23;;;24.00;51.80;;;;;;5042926;28;20051;-48
2022/07/07 04:08:49;;;;;;;1.92;1.25;;;24.00;51.90;;;;;;5044087;28;20025;-47
2022/07/07 04:11:16;;;;;;;4.10;1.30;;;24.00;51.90;;;;;;5043790;28;20351;-48
2022/07/07 04:13:41;;;;;;;2.30;1.40;;;24.00;51.90;;;;;;5044004;28;20040;-47
2022/07/07 04:16:07;;;;;;;2.10;1.30;;;24.00;51.90;;;;;;5042885;28;20024;-49
2022/07/07 04:18:33;;;;;;;2.85;1.40;;;24.00;51.90;;;;;;5043432;28;20029;-48
2022/07/07 04:20:59;;;;;;;1.85;1.02;;;24.00;51.90;;;;;;5042560;28;20108;-49
2022/07/07 04:23:25;;;;;;;2.85;1.20;;;24.00;52.00;;;;;;5043681;28;20025;-48
2022/07/07 04:25:50;;;;;;;2.28;1.13;;;24.00;52.00;;;;;;5042434;28;20036;-48
2022/07/07 04:28:16;;;;;;;2.08;1.40;;;24.00;52.00;;;;;;5043108;28;20512;-48
2022/07/07 04:30:41;;;;;;;1.83;1.20;;;24.00;52.00;;;;;;5043107;28;20017;-49
2022/07/07 04:33:07;;;;;;;2.90;1.17;;;24.00;52.00;;;;;;5042657;28;20052;-48
2022/07/07 04:35:33;;;;;;;1.90;1.27;;;24.00;52.00;;;;;;5042038;28;20032;-48
2022/07/07 04:37:58;;;;;;;2.08;1.17;;;24.00;52.00;;;;;;5042648;28;20031;-48
2022/07/07 04:40:24;;;;;;;2.20;1.20;;;24.00;52.10;;;;;;5042676;28;20628;-48
2022/07/07 04:42:50;;;;;;;1.83;1.20;;;24.00;52.00;;;;;;5042327;28;20039;-49
2022/07/07 04:45:15;;;;;;;3.30;1.60;;;24.00;52.00;;;;;;5042291;28;20276;-48
2022/07/07 04:47:42;;;;;;;3.63;1.67;;;24.10;52.10;;;;;;5042344;28;20028;-49
2022/07/07 04:50:09;;;;;;;2.65;1.42;;;24.00;52.70;;;;;;5039629;28;20060;-49
2022/07/07 04:52:39;;;;;;;2.80;1.70;;;24.00;52.90;;;;;;5040541;28;20061;-49
2022/07/07 04:55:05;;;;;;;2.17;1.15;;;24.10;53.10;;;;;;5038094;28;20079;-49
2022/07/07 04:57:31;;;;;;;3.47;1.80;;;24.10;53.10;;;;;;5041273;28;20113;-48
2022/07/07 04:59:57;;;;;;;2.67;1.42;;;24.00;53.50;;;;;;5042670;28;20100;-48
2022/07/07 05:02:22;;;;;;;3.08;1.45;;;24.10;53.60;;;;;;5035961;28;20028;-48
2022/07/07 05:04:49;;;;;;;2.78;1.60;;;24.00;53.70;;;;;;5038965;28;20013;-49
2022/07/07 05:07:15;;;;;;;4.75;2.00;;;24.00;53.80;;;;;;5040672;28;20053;-48
2022/07/07 05:09:41;;;;;;;4.35;1.80;;;24.00;54.50;;;;;;5041088;28;20708;-48
2022/07/07 05:12:07;;;;;;;3.08;1.77;;;24.10;54.40;;;;;;5037912;28;20040;-47
2022/07/07 05:14:32;;;;;;;3.58;1.90;;;24.00;54.20;;;;;;5052921;28;20032;-49
2022/07/07 05:16:59;;;;;;;2.90;1.65;;;24.00;53.90;;;;;;5046017;28;20623;-47
2022/07/07 05:19:25;;;;;;;3.22;1.92;;;24.00;53.90;;;;;;5043978;28;20056;-48
2022/07/07 05:21:51;;;;;;;2.97;1.73;;;24.00;53.70;;;;;;5051961;28;20086;-47
2022/07/07 05:24:17;;;;;;;2.90;1.67;;;24.00;53.70;;;;;;5041748;28;20037;-49
2022/07/07 05:26:43;;;;;;;3.85;2.08;;;24.00;53.60;;;;;;5041531;28;20444;-48
2022/07/07 05:29:08;;;;;;;2.88;1.55;;;24.00;53.50;;;;;;5042198;28;20064;-48
2022/07/07 05:31:34;;;;;;;3.53;1.75;;;24.00;53.40;;;;;;5044184;28;20654;-48
2022/07/07 05:34:00;;;;;;;2.67;1.73;;;24.00;53.40;;;;;;5061919;28;20040;-50
2022/07/07 05:36:25;;;;;;;3.42;2.08;;;24.00;53.30;;;;;;5052453;28;20044;-50
2022/07/07 05:38:51;;;;;;;3.20;1.80;;;24.00;53.10;;;;;;5040004;28;20044;-49
2022/07/07 05:41:17;;;;;;;3.60;1.80;;;24.00;53.30;;;;;;5040371;28;20116;-49
2022/07/07 05:43:44;;;;;;;2.58;1.63;;;23.90;53.20;;;;;;5040938;28;20051;-50
2022/07/07 05:46:10;;;;;;;3.20;1.98;;;23.90;53.30;;;;;;5039026;28;20036;-47
2022/07/07 05:48:36;;;;;;;5.32;2.35;;;23.90;54.60;;;;;;5041127;28;20679;-50
2022/07/07 05:51:01;;;;;;;3.53;2.10;;;23.90;54.20;;;;;;5041043;28;20573;-50
2022/07/07 05:53:27;;;;;;;2.90;2.00;;;23.90;54.10;;;;;;5040486;28;20033;-50
2022/07/07 05:55:53;;;;;;;4.45;2.33;;;23.90;54.20;;;;;;5041224;28;20044;-48
2022/07/07 05:58:18;;;;;;;5.97;2.10;;;23.90;54.40;;;;;;5041477;28;20057;-49
2022/07/07 06:00:44;;;;;;;3.95;2.40;;;23.80;53.70;;;;;;5040416;28;20075;-49
2022/07/07 06:03:10;;;;;;;3.65;2.10;;;23.80;52.70;;;;;;5040128;28;20111;-50
2022/07/07 06:05:37;;;;;;;4.93;2.15;;;23.70;52.10;;;;;;5042915;28;20652;-49
2022/07/07 06:08:02;;;;;;;4.57;2.05;;;23.60;50.40;;;;;;5045260;28;20033;-48
2022/07/07 06:10:28;;;;;;;3.50;2.05;;;23.50;52.10;;;;;;5044800;28;20032;-50
2022/07/07 06:12:54;;;;;;;3.42;2.08;;;23.40;50.70;;;;;;5040435;28;20032;-49
2022/07/07 06:15:23;;;;;;;4.85;2.45;;;23.30;51.00;;;;;;5040636;28;20636;-48
2022/07/07 06:17:49;;;;;;;3.70;2.22;;;23.10;49.70;;;;;;5042230;28;20021;-48
2022/07/07 06:20:14;;;;;;;5.47;2.45;;;23.00;50.40;;;;;;5042397;28;20342;-49
2022/07/07 06:22:40;;;;;;;7.28;3.08;;;22.90;50.00;;;;;;5043599;28;20647;-47
2022/07/07 06:25:09;;;;;;;4.68;2.90;;;22.70;50.90;;;;;;5043907;28;20025;-49
2022/07/07 06:27:36;;;;;;;4.43;2.28;;;22.50;50.80;;;;;;5041418;28;20017;-48
2022/07/07 06:30:05;;;;;;;3.65;2.10;;;22.40;50.90;;;;;;5044546;28;20119;-49
2022/07/07 06:32:32;;;;;;;7.97;2.60;;;22.20;51.50;;;;;;5044019;28;20036;-47
2022/07/07 06:34:57;;;;;;;5.53;2.47;;;22.20;53.10;;;;;;5044646;28;20108;-48
2022/07/07 06:37:23;;;;;;;5.05;2.47;;;22.20;53.70;;;;;;5044763;28;20512;-48
2022/07/07 06:39:49;;;;;;;6.00;2.85;;;22.30;53.90;;;;;;5045081;28;20043;-47
2022/07/07 06:42:15;;;;;;;4.60;2.60;;;22.40;53.80;;;;;;5045143;28;20103;-47
2022/07/07 06:44:41;;;;;;;5.18;2.42;;;22.50;53.90;;;;;;5045590;28;20532;-48
2022/07/07 06:47:07;;;;;;;5.53;2.22;;;22.50;53.80;;;;;;5045575;28;20561;-48
2022/07/07 06:49:33;;;;;;;6.88;2.72;;;22.60;53.80;;;;;;5045763;28;20258;-48
2022/07/07 06:51:59;;;;;;;6.05;2.58;;;22.70;53.80;;;;;;5045787;28;20025;-47
2022/07/07 06:54:24;;;;;;;4.78;2.47;;;22.70;53.80;;;;;;5046019;28;20102;-47
2022/07/07 06:56:50;;;;;;;5.88;2.38;;;22.80;53.70;;;;;;5045303;28;20443;-48
2022/07/07 06:59:16;;;;;;;4.55;2.35;;;22.80;53.60;;;;;;5045832;28;20212;-47
2022/07/07 07:01:42;;;;;;;6.05;2.47;;;22.90;53.70;;;;;;5044596;28;20025;-48
2022/07/07 07:04:09;;;;;;;3.55;1.80;;;22.90;53.80;;;;;;5045156;28;20027;-48
2022/07/07 07:06:35;;;;;;;3.58;1.80;;;22.90;53.70;;;;;;5044291;28;20025;-47
2022/07/07 07:09:02;;;;;;;2.67;1.60;;;23.00;53.60;;;;;;5045505;28;20033;-47
2022/07/07 07:11:28;;;;;;;3.90;1.70;;;23.00;53.60;;;;;;5044348;28;20102;-47
2022/07/07 07:13:56;;;;;;;3.47;1.58;;;23.10;53.60;;;;;;5045674;28;20481;-47
2022/07/07 07:16:21;;;;;;;4.22;2.08;;;23.10;53.50;;;;;;5043690;28;20029;-48
2022/07/07 07:18:47;;;;;;;2.83;1.60;;;23.10;53.60;;;;;;5045461;28;20040;-48
2022/07/07 07:21:13;;;;;;;3.00;1.63;;;23.20;53.50;;;;;;5044926;28;20528;-47
2022/07/07 07:23:39;;;;;;;4.35;1.67;;;23.20;53.50;;;;;;5045333;28;20127;-47
2022/07/07 07:26:07;;;;;;;3.60;1.60;;;23.20;53.30;;;;;;5044796;28;20033;-48
2022/07/07 07:28:33;;;;;;;3.00;1.65;;;23.20;53.40;;;;;;5045229;28;20040;-47
2022/07/07 07:31:00;;;;;;;3.00;1.40;;;23.30;53.30;;;;;;5045223;28;20021;-48
2022/07/07 07:33:26;;;;;;;2.65;1.50;;;23.30;53.20;;;;;;5045249;28;20580;-48
2022/07/07 07:35:51;;;;;;;4.32;1.40;;;23.30;53.10;;;;;;5044717;28;20035;-47
2022/07/07 07:38:17;;;;;;;2.42;1.40;;;23.40;53.10;;;;;;5044853;28;20753;-48
2022/07/07 07:40:43;;;;;;;3.00;1.75;;;23.40;52.90;;;;;;5045304;28;20500;-48
2022/07/07 07:43:09;;;;;;;2.80;1.50;;;23.40;52.90;;;;;;5044823;28;20157;-47
2022/07/07 07:45:35;;;;;;;3.85;1.70;;;23.40;52.80;;;;;;5043225;28;20031;-47
2022/07/07 07:48:04;;;;;;;2.33;1.30;;;23.50;52.80;;;;;;5044754;28;20108;-48
2022/07/07 07:50:32;;;;;;;3.05;1.60;;;23.50;52.80;;;;;;5044696;28;20157;-47
2022/07/07 07:52:58;;;;;;;2.78;1.55;;;23.50;52.70;;;;;;5044366;28;20064;-47
2022/07/07 07:55:25;;;;;;;2.72;1.40;;;23.50;52.60;;;;;;5044445;28;20552;-47
2022/07/07 07:57:52;;;;;;;2.28;1.40;;;23.50;52.50;;;;;;5044860;28;20028;-47
2022/07/07 08:00:21;;;;;;;2.53;1.35;;;23.60;52.50;;;;;;5044659;28;20036;-47
2022/07/07 08:02:47;;;;;;;3.35;1.30;;;23.60;52.40;;;;;;5044622;28;20032;-48
2022/07/07 08:05:14;;;;;;;2.08;1.30;;;23.60;52.60;;;;;;5044390;28;20029;-48
2022/07/07 08:07:41;;;;;;;2.75;1.58;;;23.60;52.50;;;;;;5044247;28;20029;-48
2022/07/07 08:10:09;;;;;;;2.20;1.33;;;23.70;52.70;;;;;;5044340;28;20060;-47
2022/07/07 08:12:35;;;;;;;2.30;1.30;;;23.70;52.50;;;;;;5044437;28;20029;-47
2022/07/07 08:15:01;;;;;;;2.75;1.40;;;23.70;52.50;;;;;;5043915;28;20125;-49
2022/07/07 08:17:27;;;;;;;2.08;1.25;;;23.70;52.30;;;;;;5044064;28;20556;-48
2022/07/07 08:19:52;;;;;;;2.65;1.30;;;23.70;52.30;;;;;;5044337;28;20052;-48
2022/07/07 08:22:18;;;;;;;2.58;1.23;;;23.70;52.20;;;;;;5043944;28;20032;-46
2022/07/07 08:24:44;;;;;;;2.95;1.50;;;23.70;52.30;;;;;;5043590;28;20025;-47
2022/07/07 08:27:10;;;;;;;2.40;1.33;;;23.80;52.30;;;;;;5043851;28;20225;-47
2022/07/07 08:29:38;;;;;;;3.00;1.38;;;23.80;52.30;;;;;;5075865;28;20035;-47
2022/07/07 08:32:07;;;;;;;2.30;1.42;;;23.80;52.20;;;;;;5044021;28;20051;-48
2022/07/07 08:34:33;;;;;;;3.97;1.50;;;23.80;52.00;;;;;;5043739;28;20491;-48
2022/07/07 08:36:59;;;;;;;2.03;1.33;;;23.90;52.10;;;;;;5043785;28;20037;-47
2022/07/07 08:39:24;;;;;;;2.33;1.30;;;23.90;51.90;;;;;;5044156;28;20021;-48
2022/07/07 08:41:50;;;;;;;2.83;1.30;;;23.90;52.00;;;;;;5043889;28;20025;-47
2022/07/07 08:44:17;;;;;;;2.47;1.15;;;23.90;52.10;;;;;;5043709;28;20487;-47
2022/07/07 08:46:43;;;;;;;2.50;1.48;;;23.90;52.00;;;;;;5043485;28;20250;-47
2022/07/07 08:49:09;;;;;;;2.38;1.48;;;23.90;52.00;;;;;;5043549;28;20090;-47
2022/07/07 08:51:41;;;;;;;2.65;1.38;;;24.00;51.70;;;;;;5043392;28;20029;-47
2022/07/07 08:54:09;;;;;;;2.05;1.02;;;24.00;51.90;;;;;;5043331;28;20029;-47
2022/07/07 08:56:36;;;;;;;2.22;1.25;;;24.00;51.90;;;;;;5042826;28;20512;-47
2022/07/07 08:59:02;;;;;;;2.33;1.17;;;24.00;51.80;;;;;;5043770;28;20025;-48
2022/07/07 09:01:28;;;;;;;2.70;1.10;;;24.00;51.90;;;;;;5043191;28;20025;-48
2022/07/07 09:03:53;;;;;;;2.05;1.23;;;24.00;51.80;;;;;;5043442;28;20087;-47
2022/07/07 09:06:19;;;;;;;2.75;1.55;;;24.00;51.80;;;;;;5042871;28;20116;-47
2022/07/07 09:08:45;;;;;;;2.22;1.05;;;24.00;51.80;;;;;;5041837;28;20088;-48
2022/07/07 09:11:10;;;;;;;2.92;1.00;;;24.10;52.00;;;;;;5043128;28;20044;-48
2022/07/07 09:13:37;;;;;;;1.65;1.00;;;24.10;51.90;;;;;;5043375;28;20025;-49
2022/07/07 09:16:23;;;;;;;2.22;1.10;;;24.10;51.90;;;;;;5042830;28;20116;-47
2022/07/07 09:18:49;;;;;;;1.88;1.00;;;24.10;51.80;;;;;;5042949;28;20025;-47
2022/07/07 09:21:31;;;;;;;2.08;1.00;;;24.10;51.70;;;;;;5042844;28;20020;-47
2022/07/07 09:23:58;;;;;;;2.40;1.10;;;24.10;51.60;;;;;;5042894;28;20020;-49
2022/07/07 09:26:39;;;;;;;1.98;1.00;;;24.10;51.70;;;;;;5039107;28;20021;-48
2022/07/07 09:29:07;;;;;;;2.42;1.23;;;24.10;51.70;;;;;;5038318;28;20036;-47
2022/07/07 09:31:54;;;;;;;2.50;1.00;;;24.20;51.80;;;;;;5040714;28;20029;-48
2022/07/07 09:34:23;;;;;;;1.95;1.08;;;24.20;51.90;;;;;;5035421;28;20134;-48
2022/07/07 09:39:50;;;;;;;2.72;1.27;;;24.20;51.90;;;;;;5033812;28;20045;-47
2022/07/07 09:42:31;;;;;;;2.50;1.05;;;24.20;51.80;;;;;;5041954;28;20023;-47
2022/07/07 09:45:00;;;;;;;2.55;1.10;;;24.20;51.80;;;;;;5042600;28;20737;-47
2022/07/07 09:47:27;;;;;;;2.42;1.10;;;24.20;51.90;;;;;;5041938;28;20029;-48
2022/07/07 09:50:08;;;;;;;3.33;1.38;;;24.20;51.80;;;;;;5041855;28;20068;-47
2022/07/07 09:52:38;;;;;;;2.50;1.20;;;24.20;51.90;;;;;;5041313;28;20120;-48
2022/07/07 09:55:08;;;;;;;3.08;1.20;;;24.20;52.00;;;;;;5037142;28;20095;-48
2022/07/07 09:57:34;;;;;;;2.20;1.20;;;24.30;52.10;;;;;;5040025;28;20035;-50
2022/07/07 10:00:00;;;;;;;1.75;1.13;;;24.20;52.00;;;;;;5035457;28;20025;-49
2022/07/07 10:02:29;;;;;;;2.10;1.20;;;24.30;52.10;;;;;;5035901;28;20802;-47
2022/07/07 10:04:57;;;;;;;3.10;1.05;;;24.30;52.10;;;;;;5040752;28;20566;-48
2022/07/07 10:07:27;;;;;;;2.45;1.13;;;24.30;52.20;;;;;;5038467;28;20044;-47
2022/07/07 10:09:56;;;;;;;2.65;1.00;;;24.30;52.10;;;;;;5041462;28;20022;-48
2022/07/07 10:12:23;;;;;;;1.80;1.20;;;24.30;52.20;;;;;;5038845;28;20166;-47
2022/07/07 10:14:53;;;;;;;1.52;1.02;;;24.30;52.10;;;;;;5041112;28;20479;-47
2022/07/07 10:17:20;;;;;;;2.33;1.10;;;24.30;52.20;;;;;;5040634;28;20102;-47
2022/07/07 10:19:46;;;;;;;2.15;1.10;;;24.30;52.20;;;;;;5039271;28;20024;-52
2022/07/07 10:22:13;;;;;;;2.03;1.00;;;24.30;52.20;;;;;;5036434;28;20029;-47
2022/07/07 10:24:40;;;;;;;1.35;0.88;;;24.30;52.20;;;;;;5036067;28;20393;-48
2022/07/07 10:27:07;;;;;;;2.22;1.20;;;24.30;52.20;;;;;;5040731;28;20032;-47
2022/07/07 10:29:49;;;;;;;1.75;1.00;;;24.40;52.20;;;;;;5037718;28;20041;-47
2022/07/07 10:32:40;;;;;;;3.05;1.02;;;24.30;52.30;;;;;;5035418;28;20078;-48
2022/07/07 10:35:09;;;;;;;2.22;1.20;;;24.40;52.30;;;;;;5039900;28;20075;-48
2022/07/07 10:37:46;;;;;;;2.70;1.40;;;24.30;52.20;;;;;;5038969;28;20029;-47
2022/07/07 10:40:25;;;;;;;2.15;1.05;;;24.40;52.30;;;;;;5041645;28;20646;-47
2022/07/07 10:43:24;;;;;;;1.88;1.25;;;24.40;52.30;;;;;;5041649;28;20060;-47
2022/07/07 10:45:53;;;;;;;2.17;1.15;;;24.40;52.30;;;;;;5040943;28;20163;-47
2022/07/07 10:48:43;;;;;;;1.90;0.90;;;24.40;52.30;;;;;;5040996;28;20025;-47
2022/07/07 10:51:27;;;;;;;1.92;1.00;;;24.40;52.20;;;;;;5039434;28;20032;-47
2022/07/07 10:53:57;;;;;;;1.98;1.00;;;24.40;52.30;;;;;;5043884;28;20044;-48
2022/07/07 10:56:24;;;;;;;2.05;1.10;;;24.40;52.30;;;;;;5044570;28;20032;-48
2022/07/07 10:59:01;;;;;;;2.00;0.95;;;24.40;52.20;;;;;;5045011;28;20025;-48
2022/07/07 11:01:32;;;;;;;2.17;1.00;;;24.40;52.40;;;;;;5044747;28;20017;-47
2022/07/07 11:03:58;;;;;;;2.38;1.10;;;24.40;52.20;;;;;;5045143;28;20090;-48
2022/07/07 11:06:25;;;;;;;1.98;0.98;;;24.40;52.20;;;;;;5044457;28;20033;-49
2022/07/07 11:08:59;;;;;;;2.00;1.10;;;24.50;52.40;;;;;;5042788;28;20623;-47
2022/07/07 11:11:26;;;;;;;1.95;1.17;;;24.40;52.20;;;;;;5044828;28;20033;-48
2022/07/07 11:14:06;;;;;;;2.38;1.00;;;24.50;52.40;;;;;;5044916;28;20021;-47
2022/07/07 11:16:32;;;;;;;2.50;1.13;;;24.50;52.50;;;;;;5044503;28;20029;-47
2022/07/07 11:19:00;;;;;;;2.08;1.02;;;24.50;52.00;;;;;;5044906;28;20032;-47
2022/07/07 11:21:34;;;;;;;1.65;0.90;;;24.50;52.30;;;;;;5044564;28;20116;-47
2022/07/07 11:24:01;;;;;;;1.92;1.08;;;24.50;52.50;;;;;;5038219;28;20031;-48
2022/07/07 11:26:26;;;;;;;1.85;1.05;;;24.50;52.40;;;;;;5044332;28;20035;-48
2022/07/07 11:28:54;;;;;;;2.05;0.90;;;24.50;52.50;;;;;;5076862;28;20045;-46
2022/07/07 11:31:20;;;;;;;2.00;1.00;;;24.50;52.40;;;;;;5044660;28;20072;-47
2022/07/07 11:33:53;;;;;;;1.45;0.90;;;24.50;52.30;;;;;;5044627;28;20033;-47
2022/07/07 11:36:24;;;;;;;3.08;1.13;;;24.50;51.90;;;;;;5043979;28;20461;-48
2022/07/07 11:38:53;;;;;;;2.08;1.00;;;24.50;52.10;;;;;;5044765;28;20025;-48
2022/07/07 11:41:19;;;;;;;2.78;1.27;;;24.50;52.10;;;;;;5044147;28;20032;-47
2022/07/07 11:43:56;;;;;;;1.90;1.00;;;24.50;52.10;;;;;;5043993;28;20416;-48
2022/07/07 11:46:23;;;;;;;1.38;0.85;;;24.50;52.20;;;;;;5043612;28;20067;-47
2022/07/07 11:48:49;;;;;;;1.50;0.80;;;24.50;52.80;;;;;;5044207;28;20564;-48
2022/07/07 11:51:15;;;;;;;1.77;0.90;;;24.60;52.00;;;;;;5043557;28;20043;-47
2022/07/07 11:53:40;;;;;;;1.60;1.05;;;24.50;51.80;;;;;;5044008;28;20221;-48
2022/07/07 11:56:06;;;;;;;2.03;1.00;;;24.60;52.10;;;;;;5042859;28;20021;-47
2022/07/07 11:58:32;;;;;;;1.80;0.88;;;24.60;52.20;;;;;;5043847;28;20025;-48
2022/07/07 12:00:59;;;;;;;2.55;0.90;;;24.60;52.20;;;;;;5043601;28;20100;-47
2022/07/07 12:03:33;;;;;;;2.70;1.13;;;24.60;52.20;;;;;;5043182;28;20099;-47
2022/07/07 12:05:59;;;;;;;2.40;1.02;;;24.60;52.30;;;;;;5043384;28;20029;-48
2022/07/07 12:08:33;;;;;;;1.60;0.82;;;24.60;52.30;;;;;;5042689;28;20115;-48
2022/07/07 12:10:59;;;;;;;1.83;1.08;;;24.60;52.30;;;;;;5043007;28;20031;-47
2022/07/07 12:13:26;;;;;;;1.98;1.08;;;24.60;52.30;;;;;;5042962;28;20100;-48
2022/07/07 12:15:53;;;;;;;1.77;0.90;;;24.60;52.40;;;;;;5043221;28;20029;-48
2022/07/07 12:18:40;;;;;;;2.03;0.98;;;24.60;52.40;;;;;;5043246;28;20025;-49
2022/07/07 12:21:11;;;;;;;1.40;0.80;;;24.60;52.40;;;;;;5043502;28;20028;-48
2022/07/07 12:23:45;;;;;;;2.13;0.88;;;24.60;52.20;;;;;;5042895;28;20116;-48
2022/07/07 12:26:18;;;;;;;1.35;0.73;;;24.60;52.10;;;;;;5042884;28;20029;-47
2022/07/07 12:28:45;;;;;;;3.38;0.90;;;24.60;52.10;;;;;;5043349;28;20134;-48
2022/07/07 12:31:22;;;;;;;1.20;0.73;;;24.60;52.30;;;;;;5043183;28;20072;-48
2022/07/07 12:33:48;;;;;;;2.30;0.90;;;24.60;52.30;;;;;;5043365;28;20025;-49
2022/07/07 12:36:15;;;;;;;2.53;1.10;;;24.60;52.10;;;;;;5042479;28;20527;-47
2022/07/07 12:38:49;;;;;;;3.28;0.90;;;24.60;52.10;;;;;;5075192;28;20037;-48
2022/07/07 12:41:26;;;;;;;1.80;0.98;;;24.60;52.20;;;;;;5043206;28;20044;-48
2022/07/07 12:43:56;;;;;;;1.67;0.80;;;24.70;52.20;;;;;;5042858;28;20040;-48
2022/07/07 12:46:32;;;;;;;1.67;0.80;;;24.60;52.10;;;;;;5042260;28;20052;-48
2022/07/07 12:49:00;;;;;;;2.63;1.23;;;24.60;52.00;;;;;;5041900;28;20041;-48
2022/07/07 12:51:26;;;;;;;1.92;1.00;;;24.60;52.10;;;;;;5042793;28;20086;-48
2022/07/07 12:53:53;;;;;;;1.65;0.80;;;24.60;52.10;;;;;;5042090;28;20082;-48